createdAt,value
2018-04-23T00:01:41.256Z,100856.20
2018-04-23T00:04:07.535Z,100856.24
2018-04-23T00:06:33.811Z,100846.99
2018-04-23T00:09:00.063Z,100843.48
2018-04-23T00:11:26.261Z,100840.02
2018-04-23T00:13:52.551Z,100838.29
2018-04-23T00:16:18.855Z,100832.59
2018-04-23T00:18:45.126Z,100835.28
2018-04-23T00:21:11.319Z,100837.53
2018-04-23T00:23:37.900Z,100840.56
2018-04-23T00:26:04.406Z,100835.77
2018-04-23T00:28:30.601Z,100833.14
2018-04-23T00:30:56.771Z,100838.47
2018-04-23T00:33:22.982Z,100834.13
2018-04-23T00:35:49.180Z,100828.50
2018-04-23T00:38:15.847Z,100829.34
2018-04-23T00:40:42.038Z,100829.83
2018-04-23T00:43:08.222Z,100828.02
2018-04-23T00:45:34.512Z,100839.47
2018-04-23T00:48:00.685Z,100835.99
2018-04-23T00:50:27.058Z,100837.31
2018-04-23T00:53:05.463Z,100834.67
2018-04-23T00:55:31.758Z,100825.44
2018-04-23T00:57:57.911Z,100825.48
2018-04-23T01:00:24.143Z,100827.26
2018-04-23T01:02:50.382Z,100823.73
2018-04-23T01:05:16.622Z,100818.92
2018-04-23T01:07:42.876Z,100806.63
2018-04-23T01:10:09.465Z,100807.54
2018-04-23T01:12:36.143Z,100802.70
2018-04-23T01:15:02.347Z,100795.65
2018-04-23T01:17:28.515Z,100797.05
2018-04-23T01:19:55.074Z,100801.12
2018-04-23T01:22:21.323Z,100816.14
2018-04-23T01:24:47.545Z,100824.90
2018-04-23T01:27:13.970Z,100822.75
2018-04-23T01:29:40.197Z,100824.95
2018-04-23T01:32:06.380Z,100833.33
2018-04-23T01:34:32.600Z,100828.54
2018-04-23T01:36:58.984Z,100834.70
2018-04-23T01:39:25.304Z,100832.06
2018-04-23T01:41:51.654Z,100831.72
2018-04-23T01:44:17.854Z,100831.34
2018-04-23T01:46:44.405Z,100826.13
2018-04-23T01:49:10.704Z,100828.39
2018-04-23T01:51:36.899Z,100827.11
2018-04-23T01:54:03.136Z,100821.88
2018-04-23T01:56:29.649Z,100819.23
2018-04-23T01:58:56.179Z,100822.76
2018-04-23T02:01:22.766Z,100825.40
2018-04-23T02:03:48.973Z,100822.38
2018-04-23T02:06:15.266Z,100817.58
2018-04-23T02:08:41.471Z,100815.33
2018-04-23T02:11:07.703Z,100818.36
2018-04-23T02:13:33.962Z,100826.23
2018-04-23T02:16:00.289Z,100819.68
2018-04-23T02:18:26.519Z,100822.77
2018-04-23T02:20:52.752Z,100819.29
2018-04-23T02:23:19.030Z,100827.65
2018-04-23T02:25:45.485Z,100822.37
2018-04-23T02:28:11.656Z,100821.94
2018-04-23T02:30:37.967Z,100820.17
2018-04-23T02:33:04.159Z,100819.25
2018-04-23T02:35:30.389Z,100819.25
2018-04-23T02:37:56.583Z,100822.28
2018-04-23T02:40:22.945Z,100820.56
2018-04-23T02:42:49.163Z,100824.92
2018-04-23T02:45:15.348Z,100824.52
2018-04-23T02:47:41.661Z,100820.55
2018-04-23T02:50:07.888Z,100826.72
2018-04-23T02:52:34.561Z,100828.88
2018-04-23T02:55:00.802Z,100820.46
2018-04-23T02:57:26.967Z,100824.52
2018-04-23T02:59:53.319Z,100823.64
2018-04-23T03:02:19.502Z,100816.22
2018-04-23T03:04:45.705Z,100816.22
2018-04-23T03:07:12.249Z,100810.98
2018-04-23T03:09:38.473Z,100809.23
2018-04-23T03:12:04.739Z,100811.11
2018-04-23T03:14:31.099Z,100805.93
2018-04-23T03:16:57.254Z,100805.09
2018-04-23T03:19:23.499Z,100805.50
2018-04-23T03:21:49.698Z,100809.89
2018-04-23T03:24:15.879Z,100809.87
2018-04-23T03:26:42.251Z,100810.27
2018-04-23T03:29:08.462Z,100805.44
2018-04-23T03:31:34.677Z,100807.69
2018-04-23T03:34:01.206Z,100801.13
2018-04-23T03:36:27.462Z,100799.37
2018-04-23T03:38:53.660Z,100802.95
2018-04-23T03:41:19.986Z,100803.02
2018-04-23T03:43:46.209Z,100805.27
2018-04-23T03:46:12.364Z,100804.83
2018-04-23T03:48:38.830Z,100804.00
2018-04-23T03:51:05.312Z,100809.78
2018-04-23T03:53:31.603Z,100813.80
2018-04-23T03:55:57.868Z,100808.08
2018-04-23T03:58:24.099Z,100812.42
2018-04-23T04:00:50.406Z,100822.20
2018-04-23T04:03:16.559Z,100828.47
2018-04-23T04:05:42.788Z,100818.41
2018-04-23T04:08:08.964Z,100820.22
2018-04-23T04:10:35.463Z,100820.72
2018-04-23T04:13:14.447Z,100816.36
2018-04-23T04:15:52.905Z,100830.72
2018-04-23T04:18:40.123Z,100826.33
2018-04-23T04:21:06.401Z,100829.80
2018-04-23T04:23:32.675Z,100833.75
2018-04-23T04:25:59.048Z,100833.36
2018-04-23T04:28:26.282Z,100829.41
2018-04-23T04:30:52.959Z,100834.23
2018-04-23T04:33:19.175Z,100836.39
2018-04-23T04:35:45.425Z,100834.25
2018-04-23T04:38:11.906Z,100841.17
2018-04-23T04:40:38.129Z,100849.48
2018-04-23T04:43:04.357Z,100856.69
2018-04-23T04:45:30.515Z,100854.70
2018-04-23T04:47:56.774Z,100861.45
2018-04-23T04:50:23.065Z,100854.47
2018-04-23T04:52:49.253Z,100857.22
2018-04-23T04:55:15.482Z,100856.00
2018-04-23T04:57:42.009Z,100856.48
2018-04-23T05:00:08.264Z,100855.17
2018-04-23T05:02:34.497Z,100849.51
2018-04-23T05:05:00.830Z,100860.55
2018-04-23T05:07:27.108Z,100873.84
2018-04-23T05:09:53.347Z,100872.09
2018-04-23T05:12:19.516Z,100886.61
2018-04-23T05:14:45.792Z,100883.14
2018-04-23T05:17:12.037Z,100893.30
2018-04-23T05:19:38.247Z,100894.03
2018-04-23T05:22:04.418Z,100900.52
2018-04-23T05:24:30.670Z,100899.65
2018-04-23T05:26:56.869Z,100907.02
2018-04-23T05:29:23.071Z,100911.02
2018-04-23T05:31:49.334Z,100912.40
2018-04-23T05:34:15.562Z,100918.56
2018-04-23T05:36:42.178Z,100920.27
2018-04-23T05:39:08.437Z,100927.58
2018-04-23T05:41:34.701Z,100929.24
2018-04-23T05:44:00.986Z,100931.84
2018-04-23T05:46:27.248Z,100948.50
2018-04-23T05:48:53.513Z,100944.16
2018-04-23T05:51:20.053Z,100942.05
2018-04-23T05:53:46.316Z,100951.39
2018-04-23T05:56:12.591Z,100951.89
2018-04-23T05:58:39.090Z,100958.81
2018-04-23T06:01:05.445Z,100952.72
2018-04-23T06:03:31.916Z,100955.06
2018-04-23T06:05:58.194Z,100956.39
2018-04-23T06:08:24.422Z,100955.84
2018-04-23T06:10:50.688Z,100966.40
2018-04-23T06:13:16.967Z,100970.50
2018-04-23T06:15:43.326Z,100978.12
2018-04-23T06:18:09.574Z,100975.63
2018-04-23T06:20:36.022Z,100980.96
2018-04-23T06:23:02.239Z,100980.56
2018-04-23T06:25:28.529Z,100987.17
2018-04-23T06:27:54.794Z,100986.73
2018-04-23T06:30:20.998Z,100996.80
2018-04-23T06:32:47.334Z,100998.16
2018-04-23T06:35:13.618Z,100993.37
2018-04-23T06:37:39.938Z,100997.33
2018-04-23T06:40:06.174Z,100996.02
2018-04-23T06:42:32.472Z,101001.20
2018-04-23T06:44:58.647Z,101011.70
2018-04-23T06:47:24.857Z,101004.28
2018-04-23T06:49:51.093Z,101023.19
2018-04-23T06:52:17.285Z,101016.98
2018-04-23T06:54:43.507Z,101016.15
2018-04-23T06:57:10.132Z,101025.09
2018-04-23T06:59:36.495Z,101028.66
2018-04-23T07:02:02.742Z,101024.16
2018-04-23T07:04:29.255Z,101023.23
2018-04-23T07:06:55.452Z,101028.95
2018-04-23T07:09:21.710Z,101032.12
2018-04-23T07:11:48.202Z,101030.99
2018-04-23T07:14:14.376Z,101033.70
2018-04-23T07:16:40.664Z,101036.86
2018-04-23T07:19:06.852Z,101034.17
2018-04-23T07:21:33.078Z,101041.55
2018-04-23T07:23:59.322Z,101050.80
2018-04-23T07:26:25.824Z,101060.17
2018-04-23T07:28:52.084Z,101052.88
2018-04-23T07:31:18.567Z,101059.66
2018-04-23T07:33:44.908Z,101061.81
2018-04-23T07:36:11.356Z,101060.02
2018-04-23T07:38:37.598Z,101064.94
2018-04-23T07:41:03.806Z,101057.03
2018-04-23T07:43:30.154Z,101062.73
2018-04-23T07:45:56.347Z,101067.62
2018-04-23T07:48:22.528Z,101070.65
2018-04-23T07:50:48.750Z,101081.24
2018-04-23T07:53:15.254Z,101084.77
2018-04-23T07:55:41.428Z,101085.73
2018-04-23T07:58:07.746Z,101090.13
2018-04-23T08:00:33.972Z,101093.59
2018-04-23T08:03:00.259Z,101098.03
2018-04-23T08:05:26.961Z,101100.33
2018-04-23T08:07:53.567Z,101101.69
2018-04-23T08:10:19.771Z,101103.50
2018-04-23T08:12:46.226Z,101117.17
2018-04-23T08:15:12.465Z,101127.88
2018-04-23T08:17:38.727Z,101127.05
2018-04-23T08:20:05.026Z,101130.97
2018-04-23T08:22:31.303Z,101133.16
2018-04-23T08:24:57.489Z,101144.20
2018-04-23T08:27:23.717Z,101145.24
2018-04-23T08:29:50.069Z,101153.77
2018-04-23T08:32:16.318Z,101146.47
2018-04-23T08:34:42.579Z,101157.09
2018-04-23T08:37:08.923Z,101165.52
2018-04-23T08:39:35.270Z,101172.19
2018-04-23T08:42:01.485Z,101182.78
2018-04-23T08:44:27.719Z,101184.53
2018-04-23T08:46:53.892Z,101191.12
2018-04-23T08:49:20.330Z,101185.81
2018-04-23T08:51:46.590Z,101191.05
2018-04-23T08:54:13.227Z,101197.64
2018-04-23T08:56:39.486Z,101194.95
2018-04-23T08:59:05.771Z,101200.11
2018-04-23T09:01:32.092Z,101196.91
2018-04-23T09:03:58.326Z,101199.86
2018-04-23T09:06:24.642Z,101198.94
2018-04-23T09:08:50.848Z,101201.89
2018-04-23T09:11:17.434Z,101204.28
2018-04-23T09:13:44.630Z,101214.39
2018-04-23T09:16:10.820Z,101219.27
2018-04-23T09:18:37.086Z,101217.38
2018-04-23T09:21:03.595Z,101209.66
2018-04-23T09:23:29.925Z,101220.56
2018-04-23T09:25:56.132Z,101231.11
2018-04-23T09:28:22.386Z,101217.09
2018-04-23T09:30:48.639Z,101224.69
2018-04-23T09:33:15.050Z,101229.92
2018-04-23T09:35:41.388Z,101235.51
2018-04-23T09:38:07.996Z,101239.38
2018-04-23T09:40:34.288Z,101234.19
2018-04-23T09:43:00.852Z,101240.03
2018-04-23T09:45:27.097Z,101246.58
2018-04-23T09:47:53.526Z,101245.14
2018-04-23T09:50:19.745Z,101240.01
2018-04-23T09:52:45.954Z,101236.74
2018-04-23T09:55:12.250Z,101240.58
2018-04-23T09:57:38.542Z,101244.66
2018-04-23T10:00:04.722Z,101254.83
2018-04-23T10:02:31.351Z,101252.19
2018-04-23T10:04:57.515Z,101247.39
2018-04-23T10:07:23.883Z,101247.31
2018-04-23T10:09:50.162Z,101267.36
2018-04-23T10:12:16.334Z,101244.27
2018-04-23T10:14:42.720Z,101257.78
2018-04-23T10:17:08.947Z,101257.25
2018-04-23T10:19:35.992Z,101259.48
2018-04-23T10:22:08.923Z,101258.74
2018-04-23T10:24:36.358Z,101265.08
2018-04-23T10:27:02.615Z,101264.73
2018-04-23T10:29:29.084Z,101271.94
2018-04-23T10:31:55.287Z,101267.02
2018-04-23T10:34:21.597Z,101273.13
2018-04-23T10:36:49.009Z,101269.56
2018-04-23T10:39:15.387Z,101273.40
2018-04-23T10:41:41.994Z,101278.41
2018-04-23T10:44:08.317Z,101272.73
2018-04-23T10:46:34.632Z,101275.11
2018-04-23T10:49:01.168Z,101273.05
2018-04-23T10:51:27.886Z,101278.98
2018-04-23T10:53:54.426Z,101274.36
2018-04-23T10:56:20.726Z,101283.91
2018-04-23T10:58:47.348Z,101283.82
2018-04-23T11:01:13.644Z,101284.62
2018-04-23T11:03:39.820Z,101277.97
2018-04-23T11:06:06.036Z,101285.94
2018-04-23T11:08:32.294Z,101280.73
2018-04-23T11:10:58.668Z,101304.45
2018-04-23T11:13:24.873Z,101282.95
2018-04-23T11:15:51.190Z,101290.30
2018-04-23T11:18:17.395Z,101295.80
2018-04-23T11:20:43.606Z,101292.84
2018-04-23T11:23:09.848Z,101306.22
2018-04-23T11:25:36.023Z,101285.84
2018-04-23T11:28:02.204Z,101295.44
2018-04-23T11:30:28.403Z,101293.32
2018-04-23T11:32:54.933Z,101254.61
2018-04-23T11:35:21.196Z,101289.67
2018-04-23T11:37:47.726Z,101278.67
2018-04-23T11:40:14.129Z,101297.11
2018-04-23T11:42:40.490Z,101309.88
2018-04-23T11:45:06.696Z,101294.91
2018-04-23T11:47:32.880Z,101305.52
2018-04-23T11:49:59.516Z,101290.73
2018-04-23T11:52:25.677Z,101302.34
2018-04-23T11:54:51.903Z,101284.43
2018-04-23T11:57:18.230Z,101295.11
2018-04-23T11:59:44.421Z,101297.25
2018-04-23T12:02:10.660Z,101292.48
2018-04-23T12:04:37.009Z,101297.09
2018-04-23T12:07:03.248Z,101286.00
2018-04-23T12:09:29.431Z,101285.03
2018-04-23T12:11:55.618Z,101290.17
2018-04-23T12:14:21.822Z,101307.28
2018-04-23T12:16:48.027Z,101297.08
2018-04-23T12:19:14.205Z,101297.65
2018-04-23T12:21:40.429Z,101304.55
2018-04-23T12:24:07.058Z,101306.97
2018-04-23T12:26:33.260Z,101335.02
2018-04-23T12:28:59.501Z,101303.22
2018-04-23T12:31:25.792Z,101304.48
2018-04-23T12:33:52.278Z,101310.22
2018-04-23T12:36:18.494Z,101307.77
2018-04-23T12:38:44.738Z,101306.56
2018-04-23T12:41:10.977Z,101298.78
2018-04-23T12:43:37.292Z,101311.45
2018-04-23T12:46:03.977Z,101309.16
2018-04-23T12:48:30.211Z,101307.45
2018-04-23T12:50:56.545Z,101319.73
2018-04-23T12:53:22.713Z,101316.89
2018-04-23T12:55:48.963Z,101322.08
2018-04-23T12:58:15.633Z,101322.47
2018-04-23T13:00:41.868Z,101320.46
2018-04-23T13:03:08.047Z,101322.96
2018-04-23T13:05:34.351Z,101322.28
2018-04-23T13:08:00.590Z,101329.61
2018-04-23T13:10:27.266Z,101331.19
2018-04-23T13:12:53.525Z,101326.84
2018-04-23T13:15:19.807Z,101334.77
2018-04-23T13:17:47.014Z,101337.17
2018-04-23T13:20:13.234Z,101324.74
2018-04-23T13:22:39.560Z,101332.13
2018-04-23T13:25:05.748Z,101332.13
2018-04-23T13:27:31.933Z,101336.00
2018-04-23T13:29:58.150Z,101330.57
2018-04-23T13:32:24.540Z,101333.66
2018-04-23T13:34:51.126Z,101329.34
2018-04-23T13:37:17.315Z,101336.48
2018-04-23T13:39:43.590Z,101327.59
2018-04-23T13:42:09.862Z,101326.56
2018-04-23T13:44:36.371Z,101322.05
2018-04-23T13:47:02.607Z,101317.50
2018-04-23T13:49:29.235Z,101333.85
2018-04-23T13:51:55.465Z,101328.41
2018-04-23T13:54:21.693Z,101327.67
2018-04-23T13:56:48.330Z,101327.81
2018-04-23T13:59:14.523Z,101339.56
2018-04-23T14:01:40.820Z,101333.35
2018-04-23T14:04:07.074Z,101328.75
2018-04-23T14:06:33.494Z,101339.20
2018-04-23T14:08:59.695Z,101334.73
2018-04-23T14:11:27.229Z,101340.55
2018-04-23T14:13:53.476Z,101334.32
2018-04-23T14:16:19.798Z,101344.31
2018-04-23T14:18:45.966Z,101346.95
2018-04-23T14:21:12.135Z,101349.38
2018-04-23T14:23:38.805Z,101348.20
2018-04-23T14:26:05.047Z,101346.46
2018-04-23T14:28:31.214Z,101336.98
2018-04-23T14:30:57.441Z,101343.66
2018-04-23T14:33:23.664Z,101341.09
2018-04-23T14:35:50.055Z,101347.72
2018-04-23T14:38:16.235Z,101347.80
2018-04-23T14:40:42.384Z,101354.45
2018-04-23T14:43:09.224Z,101347.48
2018-04-23T14:45:35.405Z,101353.63
2018-04-23T14:48:01.654Z,101351.18
2018-04-23T14:50:27.858Z,101352.94
2018-04-23T14:52:54.138Z,101349.13
2018-04-23T14:55:20.391Z,101352.09
2018-04-23T14:57:46.583Z,101356.19
2018-04-23T15:00:12.781Z,101362.26
2018-04-23T15:02:39.349Z,101367.88
2018-04-23T15:05:05.618Z,101362.02
2018-04-23T15:07:31.792Z,101364.16
2018-04-23T15:09:58.013Z,101362.36
2018-04-23T15:12:24.505Z,101369.32
2018-04-23T15:14:50.703Z,101361.19
2018-04-23T15:17:16.870Z,101367.24
2018-04-23T15:19:43.483Z,101364.67
2018-04-23T15:22:09.758Z,101361.38
2018-04-23T15:24:35.951Z,101368.20
2018-04-23T15:27:02.623Z,101368.70
2018-04-23T15:29:28.785Z,101373.55
2018-04-23T15:31:54.983Z,101370.38
2018-04-23T15:34:21.656Z,101370.34
2018-04-23T15:36:48.201Z,101386.53
2018-04-23T15:39:14.361Z,101381.80
2018-04-23T15:41:40.637Z,101382.89
2018-04-23T15:44:06.895Z,101380.05
2018-04-23T15:46:33.411Z,101381.94
2018-04-23T15:48:59.631Z,101377.23
2018-04-23T15:51:25.846Z,101384.31
2018-04-23T15:53:52.014Z,101378.61
2018-04-23T15:56:18.215Z,101364.81
2018-04-23T15:58:44.526Z,101382.97
2018-04-23T16:01:10.731Z,101375.26
2018-04-23T16:03:44.022Z,101376.39
2018-04-23T16:06:10.195Z,101384.94
2018-04-23T16:08:36.393Z,101373.66
2018-04-23T16:11:02.581Z,101375.61
2018-04-23T16:13:29.201Z,101381.75
2018-04-23T16:15:55.414Z,101388.80
2018-04-23T16:18:21.591Z,101381.83
2018-04-23T16:20:47.810Z,101374.92
2018-04-23T16:23:13.979Z,101384.09
2018-04-23T16:25:40.187Z,101380.73
2018-04-23T16:28:06.426Z,101390.64
2018-04-23T16:30:32.667Z,101368.08
2018-04-23T16:32:58.866Z,101390.92
2018-04-23T16:35:25.174Z,101384.69
2018-04-23T16:37:51.838Z,101374.86
2018-04-23T16:40:18.027Z,101387.80
2018-04-23T16:42:44.280Z,101392.95
2018-04-23T16:45:10.700Z,101391.84
2018-04-23T16:47:36.994Z,101395.83
2018-04-23T16:50:03.256Z,101419.57
2018-04-23T16:52:29.439Z,101384.73
2018-04-23T16:54:55.658Z,101407.91
2018-04-23T16:57:21.917Z,101395.80
2018-04-23T16:59:48.221Z,101409.72
2018-04-23T17:02:14.530Z,101402.02
2018-04-23T17:04:40.780Z,101408.84
2018-04-23T17:07:06.986Z,101405.75
2018-04-23T17:09:33.209Z,101405.16
2018-04-23T17:11:59.405Z,101400.40
2018-04-23T17:14:25.632Z,101409.80
2018-04-23T17:16:51.893Z,101407.13
2018-04-23T17:19:18.076Z,101403.41
2018-04-23T17:21:44.253Z,101409.52
2018-04-23T17:24:10.825Z,101409.96
2018-04-23T17:26:37.011Z,101408.98
2018-04-23T17:29:03.174Z,101417.91
2018-04-23T17:31:29.462Z,101413.83
2018-04-23T17:33:55.786Z,101418.80
2018-04-23T17:36:22.035Z,101408.45
2018-04-23T17:38:48.570Z,101404.85
2018-04-23T17:41:15.315Z,101407.74
2018-04-23T17:43:43.879Z,101415.50
2018-04-23T17:46:10.121Z,101413.09
2018-04-23T17:48:36.699Z,101414.41
2018-04-23T17:51:02.893Z,101414.34
2018-04-23T17:53:29.080Z,101412.11
2018-04-23T17:55:55.688Z,101408.81
2018-04-23T17:58:21.894Z,101414.55
2018-04-23T18:00:48.084Z,101412.96
2018-04-23T18:03:14.293Z,101408.73
2018-04-23T18:05:40.634Z,101411.16
2018-04-23T18:08:07.238Z,101413.58
2018-04-23T18:10:33.413Z,101416.84
2018-04-23T18:12:59.642Z,101416.53
2018-04-23T18:15:25.960Z,101419.36
2018-04-23T18:17:52.170Z,101412.97
2018-04-23T18:20:18.333Z,101419.30
2018-04-23T18:22:44.517Z,101423.82
2018-04-23T18:25:10.732Z,101427.88
2018-04-23T18:27:37.038Z,101425.31
2018-04-23T18:30:03.616Z,101426.75
2018-04-23T18:32:29.808Z,101433.52
2018-04-23T18:34:56.502Z,101434.09
2018-04-23T18:37:22.696Z,101424.13
2018-04-23T18:39:49.876Z,101433.92
2018-04-23T18:42:16.210Z,101435.80
2018-04-23T18:44:42.532Z,101437.20
2018-04-23T18:47:08.716Z,101444.29
2018-04-23T18:49:35.272Z,101443.08
2018-04-23T18:52:01.499Z,101447.16
2018-04-23T18:54:27.750Z,101450.72
2018-04-23T18:56:53.967Z,101455.63
2018-04-23T18:59:20.307Z,101453.55
2018-04-23T19:01:46.584Z,101450.11
2018-04-23T19:04:12.790Z,101457.55
2018-04-23T19:06:38.964Z,101456.71
2018-04-23T19:09:05.310Z,101460.27
2018-04-23T19:11:31.496Z,101465.14
2018-04-23T19:13:57.738Z,101472.69
2018-04-23T19:16:24.146Z,101471.85
2018-04-23T19:18:50.366Z,101467.09
2018-04-23T19:21:16.563Z,101475.92
2018-04-23T19:23:42.754Z,101475.48
2018-04-23T19:26:09.097Z,101472.84
2018-04-23T19:28:35.276Z,101470.20
2018-04-23T19:31:01.757Z,101472.88
2018-04-23T19:33:27.990Z,101472.95
2018-04-23T19:35:55.871Z,101471.27
2018-04-23T19:38:22.154Z,101472.16
2018-04-23T19:40:48.363Z,101463.87
2018-04-23T19:43:14.628Z,101473.58
2018-04-23T19:45:41.012Z,101469.66
2018-04-23T19:48:07.216Z,101477.58
2018-04-23T19:50:33.433Z,101482.41
2018-04-23T19:52:59.650Z,101475.81
2018-04-23T19:55:25.882Z,101478.42
2018-04-23T19:57:52.167Z,101474.50
2018-04-23T20:00:18.441Z,101476.26
2018-04-23T20:02:44.976Z,101471.02
2018-04-23T20:05:11.186Z,101472.41
2018-04-23T20:07:37.659Z,101469.37
2018-04-23T20:10:04.583Z,101470.72
2018-04-23T20:12:30.863Z,101462.92
2018-04-23T20:14:57.177Z,101467.28
2018-04-23T20:17:23.368Z,101467.31
2018-04-23T20:19:49.647Z,101454.13
2018-04-23T20:22:15.848Z,101462.59
2018-04-23T20:24:42.091Z,101459.59
2018-04-23T20:27:08.645Z,101460.06
2018-04-23T20:29:35.124Z,101460.50
2018-04-23T20:32:01.389Z,101457.42
2018-04-23T20:34:27.941Z,101459.69
2018-04-23T20:36:54.187Z,101463.20
2018-04-23T20:39:20.373Z,101464.02
2018-04-23T20:41:46.575Z,101461.34
2018-04-23T20:44:12.770Z,101460.43
2018-04-23T20:46:39.502Z,101452.55
2018-04-23T20:49:05.681Z,101461.23
2018-04-23T20:51:31.860Z,101466.51
2018-04-23T20:53:58.139Z,101465.67
2018-04-23T20:56:24.365Z,101469.22
2018-04-23T20:58:50.748Z,101466.58
2018-04-23T21:01:17.114Z,101470.13
2018-04-23T21:03:43.322Z,101472.33
2018-04-23T21:06:09.569Z,101471.52
2018-04-23T21:08:35.788Z,101470.20
2018-04-23T21:11:02.063Z,101461.34
2018-04-23T21:13:28.244Z,101467.42
2018-04-23T21:15:54.442Z,101469.59
2018-04-23T21:18:21.016Z,101464.79
2018-04-23T21:20:47.330Z,101467.42
2018-04-23T21:23:13.626Z,101459.95
2018-04-23T21:25:39.849Z,101457.76
2018-04-23T21:28:06.492Z,101461.27
2018-04-23T21:30:32.682Z,101457.31
2018-04-23T21:32:58.946Z,101453.84
2018-04-23T21:35:25.622Z,101449.95
2018-04-23T21:37:51.872Z,101450.02
2018-04-23T21:40:18.182Z,101443.84
2018-04-23T21:42:44.419Z,101449.14
2018-04-23T21:45:10.927Z,101440.39
2018-04-23T21:47:37.550Z,101443.91
2018-04-23T21:50:03.741Z,101444.38
2018-04-23T21:52:30.330Z,101445.27
2018-04-23T21:54:56.795Z,101451.89
2018-04-23T21:57:23.045Z,101455.38
2018-04-23T21:59:49.686Z,101457.97
2018-04-23T22:02:16.054Z,101458.89
2018-04-23T22:04:42.220Z,101458.92
2018-04-23T22:07:08.853Z,101464.59
2018-04-23T22:09:35.028Z,101457.94
2018-04-23T22:12:01.547Z,101459.29
2018-04-23T22:14:27.723Z,101461.56
2018-04-23T22:16:54.091Z,101464.23
2018-04-23T22:19:20.360Z,101459.94
2018-04-23T22:21:46.547Z,101466.57
2018-04-23T22:24:12.837Z,101463.45
2018-04-23T22:26:39.028Z,101464.77
2018-04-23T22:29:05.233Z,101456.94
2018-04-23T22:31:31.510Z,101461.80
2018-04-23T22:33:58.083Z,101460.86
2018-04-23T22:36:24.352Z,101450.38
2018-04-23T22:38:50.705Z,101449.54
2018-04-23T22:41:17.235Z,101442.14
2018-04-23T22:43:43.538Z,101444.38
2018-04-23T22:46:09.768Z,101436.13
2018-04-23T22:48:36.173Z,101437.37
2018-04-23T22:51:02.527Z,101443.42
2018-04-23T22:53:28.962Z,101441.67
2018-04-23T22:55:55.286Z,101431.27
2018-04-23T22:58:21.531Z,101436.23
2018-04-23T23:00:47.908Z,101431.07
2018-04-23T23:03:14.459Z,101427.12
2018-04-23T23:05:40.994Z,101413.09
2018-04-23T23:08:07.520Z,101409.62
2018-04-23T23:10:33.760Z,101400.88
2018-04-23T23:13:00.292Z,101405.77
2018-04-23T23:15:26.558Z,101396.14
2018-04-23T23:17:53.057Z,101396.62
2018-04-23T23:20:19.522Z,101396.17
2018-04-23T23:22:46.069Z,101387.43
2018-04-23T23:25:12.319Z,101383.52
2018-04-23T23:27:38.791Z,101381.76
2018-04-23T23:30:05.126Z,101376.55
2018-04-23T23:32:31.302Z,101376.59
2018-04-23T23:34:57.539Z,101374.88
2018-04-23T23:37:23.836Z,101370.98
2018-04-23T23:39:50.086Z,101366.67
2018-04-23T23:42:16.367Z,101364.03
2018-04-23T23:44:42.558Z,101365.35
2018-04-23T23:47:08.827Z,101372.41
2018-04-23T23:49:35.150Z,101372.41
2018-04-23T23:52:01.429Z,101362.34
2018-04-23T23:54:27.720Z,101362.82
2018-04-23T23:56:53.982Z,101356.27
2018-04-23T23:59:20.266Z,101342.73
